Time;durP1;ratioP1;P1;durP2;ratioP2;P2;SDS_P1;SDS_P2;PMS_P1;PMS_P2;Temp;Humidity;BMP_temperature;BMP_pressure;BME280_temperature;BME280_humidity;BME280_pressure;Samples;Min_cycle;Max_cycle;Signal;HPM_P1;HPM_P2
2022/05/26 00:00:21;;;;;;;1.63;0.90;;;19.40;65.00;;;;;;10414294;28;20029;-61
2022/05/26 00:05:24;;;;;;;1.20;0.93;;;19.40;65.00;;;;;;10414420;28;20051;-63
2022/05/26 00:10:24;;;;;;;2.85;1.40;;;19.40;65.00;;;;;;10414304;28;20052;-64
2022/05/26 00:15:26;;;;;;;1.92;1.20;;;19.40;65.00;;;;;;10413917;28;20144;-64
2022/05/26 00:20:27;;;;;;;1.60;1.13;;;19.40;65.00;;;;;;10413314;28;20026;-64
2022/05/26 00:25:27;;;;;;;1.75;0.90;;;19.40;65.00;;;;;;10414980;28;20060;-64
2022/05/26 00:30:28;;;;;;;1.63;0.90;;;19.40;65.00;;;;;;10413258;28;20034;-64
2022/05/26 00:35:29;;;;;;;2.08;1.15;;;19.40;65.00;;;;;;10413256;28;20033;-64
2022/05/26 00:40:30;;;;;;;1.83;0.93;;;19.30;64.90;;;;;;10428768;28;20057;-64
2022/05/26 00:46:06;;;;;;;1.58;1.38;;;19.40;65.00;;;;;;10412592;28;20031;-65
2022/05/26 00:51:07;;;;;;;2.75;1.60;;;19.40;65.00;;;;;;10422177;28;20043;-64
2022/05/26 00:56:15;;;;;;;2.67;1.58;;;19.30;65.00;;;;;;10412766;28;20319;-63
2022/05/26 01:01:18;;;;;;;2.03;1.27;;;19.30;65.10;;;;;;10411232;28;20059;-64
2022/05/26 01:06:42;;;;;;;2.35;1.02;;;19.40;65.20;;;;;;10411598;28;20055;-63
2022/05/26 01:11:45;;;;;;;1.63;1.23;;;19.30;65.20;;;;;;10425962;28;20437;-64
2022/05/26 01:17:13;;;;;;;1.35;1.10;;;19.30;65.20;;;;;;10412478;28;20136;-64
2022/05/26 01:23:11;;;;;;;2.97;1.27;;;19.30;65.10;;;;;;10411103;28;20030;-63
2022/05/26 01:29:01;;;;;;;1.52;1.15;;;19.30;65.10;;;;;;10412381;28;20138;-62
2022/05/26 01:34:17;;;;;;;;;;;19.30;65.10;;;;;;10412232;28;20069;-64
2022/05/26 01:39:47;;;;;;;1.30;1.13;;;19.30;65.10;;;;;;10420068;28;19913;-64
2022/05/26 01:45:26;;;;;;;1.52;1.42;;;19.30;65.10;;;;;;10417103;28;20107;-63
2022/05/26 01:50:50;;;;;;;2.35;1.40;;;19.30;65.20;;;;;;10419838;28;20021;-64
2022/05/26 01:55:58;;;;;;;2.75;1.70;;;19.30;65.20;;;;;;10410192;28;20095;-63
2022/05/26 02:01:04;;;;;;;2.50;1.30;;;19.30;65.10;;;;;;10419223;28;20076;-63
2022/05/26 02:06:30;;;;;;;3.05;1.55;;;19.30;65.20;;;;;;10404707;28;20034;-64
2022/05/26 02:11:33;;;;;;;2.00;1.30;;;19.30;65.10;;;;;;10418733;28;20595;-63
2022/05/26 02:17:00;;;;;;;3.00;1.40;;;19.30;65.10;;;;;;10417370;28;20040;-64
2022/05/26 02:22:25;;;;;;;2.20;1.80;;;19.30;65.10;;;;;;10429254;28;20124;-63
2022/05/26 02:27:27;;;;;;;3.05;1.70;;;19.30;65.20;;;;;;10418238;28;20032;-63
2022/05/26 02:32:48;;;;;;;2.85;1.30;;;19.30;65.20;;;;;;10404325;28;20165;-64
2022/05/26 02:37:54;;;;;;;3.38;1.58;;;19.30;65.30;;;;;;10416752;28;20502;-63
2022/05/26 02:43:14;;;;;;;2.00;1.70;;;19.20;65.20;;;;;;10418701;28;20527;-64
2022/05/26 02:48:45;;;;;;;2.10;1.52;;;19.30;65.20;;;;;;10415625;28;20057;-63
2022/05/26 02:54:04;;;;;;;2.80;1.67;;;19.30;65.20;;;;;;10430246;28;20061;-64
2022/05/26 02:59:17;;;;;;;2.33;1.50;;;19.30;65.20;;;;;;10417157;28;20036;-63
2022/05/26 03:04:45;;;;;;;4.30;1.73;;;19.20;65.10;;;;;;10417062;28;20634;-62
2022/05/26 03:09:46;;;;;;;2.90;2.15;;;19.20;65.20;;;;;;10403066;28;20039;-63
2022/05/26 03:14:46;;;;;;;1.75;1.40;;;19.20;65.10;;;;;;10415082;28;20030;-64
2022/05/26 03:19:47;;;;;;;2.55;1.63;;;19.20;65.10;;;;;;10399806;28;20086;-64
2022/05/26 03:24:49;;;;;;;3.15;1.42;;;19.20;65.10;;;;;;10415217;28;20417;-64
2022/05/26 03:29:49;;;;;;;2.22;1.58;;;19.20;65.10;;;;;;10418006;28;20025;-64
2022/05/26 03:45:34;;;;;;;4.78;2.17;;;19.20;65.70;;;;;;10414631;28;20041;-63
2022/05/26 03:50:36;;;;;;;4.93;2.05;;;19.20;65.50;;;;;;10404276;28;20060;-62
2022/05/26 03:55:37;;;;;;;3.83;2.33;;;19.20;65.40;;;;;;10414942;28;20032;-62
2022/05/26 04:00:38;;;;;;;4.35;2.22;;;19.20;65.50;;;;;;10414510;28;20033;-63
2022/05/26 04:05:39;;;;;;;3.60;2.47;;;19.20;65.30;;;;;;10414104;28;20029;-62
2022/05/26 04:10:39;;;;;;;3.72;2.15;;;19.20;65.30;;;;;;10413949;28;20061;-61
2022/05/26 04:15:40;;;;;;;3.20;2.05;;;19.20;65.30;;;;;;10412821;28;20049;-62
2022/05/26 04:20:41;;;;;;;3.33;1.92;;;19.20;65.20;;;;;;10411537;28;20147;-61
2022/05/26 04:25:42;;;;;;;3.60;1.85;;;19.20;65.30;;;;;;10415356;28;20128;-61
2022/05/26 04:30:42;;;;;;;3.42;1.95;;;19.20;65.30;;;;;;10411884;28;20102;-61
2022/05/26 04:35:43;;;;;;;4.55;2.38;;;19.20;65.30;;;;;;10413496;28;20061;-61
2022/05/26 04:40:45;;;;;;;4.95;2.42;;;19.20;65.20;;;;;;10401595;28;20061;-61
2022/05/26 04:45:45;;;;;;;4.88;2.17;;;19.20;65.30;;;;;;10411853;28;20072;-61
2022/05/26 04:50:46;;;;;;;5.80;2.10;;;19.20;65.30;;;;;;10411691;28;20048;-61
2022/05/26 04:55:55;;;;;;;5.75;2.47;;;19.20;65.40;;;;;;10413032;28;20060;-62
2022/05/26 05:00:56;;;;;;;5.18;2.58;;;19.20;65.40;;;;;;10412997;28;20057;-62
2022/05/26 05:05:56;;;;;;;2.67;1.88;;;19.20;65.50;;;;;;10418692;28;21987;-61
2022/05/26 05:10:57;;;;;;;5.85;2.20;;;19.10;65.50;;;;;;10420343;28;20122;-62
2022/05/26 05:16:08;;;;;;;4.95;3.22;;;19.10;65.40;;;;;;10420892;28;20116;-61
2022/05/26 05:21:13;;;;;;;4.60;2.00;;;19.10;65.40;;;;;;10417197;28;20068;-62
2022/05/26 05:26:19;;;;;;;3.72;2.63;;;19.10;65.40;;;;;;10419591;28;20030;-61
2022/05/26 05:31:36;;;;;;;3.45;2.50;;;19.20;65.40;;;;;;10420769;28;20026;-61
2022/05/26 05:36:38;;;;;;;5.35;2.22;;;19.10;65.40;;;;;;10419168;28;20136;-62
2022/05/26 05:41:39;;;;;;;7.20;2.10;;;19.10;65.40;;;;;;10418654;28;20554;-62
2022/05/26 05:46:54;;;;;;;4.18;2.10;;;19.10;65.40;;;;;;10419740;28;20033;-61
2022/05/26 05:52:03;;;;;;;7.03;2.53;;;19.20;65.50;;;;;;10433224;28;20026;-61
2022/05/26 05:57:04;;;;;;;3.92;2.75;;;19.10;65.50;;;;;;10434019;28;20087;-62
2022/05/26 06:02:06;;;;;;;3.25;1.85;;;19.10;65.50;;;;;;10419459;28;20034;-65
2022/05/26 06:07:06;;;;;;;4.50;1.70;;;19.10;65.50;;;;;;10417894;28;20036;-62
2022/05/26 06:12:09;;;;;;;2.85;1.65;;;19.20;65.60;;;;;;10417262;28;20407;-62
2022/05/26 06:17:11;;;;;;;3.95;2.22;;;19.10;65.50;;;;;;10418937;28;20039;-62
2022/05/26 06:22:16;;;;;;;6.07;2.53;;;19.20;65.60;;;;;;10414496;28;20072;-63
2022/05/26 06:38:14;;;;;;;4.60;2.08;;;19.10;65.60;;;;;;10418591;28;20432;-62
2022/05/26 06:43:15;;;;;;;3.47;1.85;;;19.10;65.60;;;;;;10411921;28;20123;-62
2022/05/26 06:48:16;;;;;;;3.05;1.73;;;19.20;65.60;;;;;;10416390;28;20056;-61
2022/05/26 06:53:20;;;;;;;6.03;2.40;;;19.10;65.60;;;;;;10417418;28;20033;-62
2022/05/26 06:58:21;;;;;;;5.32;2.83;;;19.20;66.10;;;;;;10417266;28;20064;-61
2022/05/26 07:03:22;;;;;;;2.85;1.90;;;19.10;66.20;;;;;;10417179;28;20107;-61
2022/05/26 07:08:23;;;;;;;7.10;2.88;;;19.10;66.20;;;;;;10416295;28;20028;-62
2022/05/26 07:13:26;;;;;;;4.00;2.20;;;19.20;66.40;;;;;;10416741;28;20053;-63
2022/05/26 07:18:27;;;;;;;5.00;2.40;;;19.20;66.50;;;;;;10416502;28;20024;-63
2022/05/26 07:23:27;;;;;;;4.55;2.13;;;19.20;66.40;;;;;;10416796;28;20033;-63
2022/05/26 07:28:28;;;;;;;4.07;2.15;;;19.20;66.20;;;;;;10415984;28;20553;-62
2022/05/26 07:33:29;;;;;;;4.40;2.20;;;19.20;66.40;;;;;;10415114;28;20096;-62
2022/05/26 07:43:55;;;;;;;3.53;1.80;;;19.30;66.40;;;;;;10428600;28;20033;-62
2022/05/26 07:48:56;;;;;;;3.70;1.95;;;19.30;66.30;;;;;;10413676;28;20060;-62
2022/05/26 07:54:00;;;;;;;3.67;2.00;;;19.20;66.30;;;;;;10430178;28;20108;-62
2022/05/26 07:59:00;;;;;;;3.58;2.00;;;19.30;66.50;;;;;;10429545;28;20087;-62
2022/05/26 08:04:02;;;;;;;2.67;1.80;;;19.30;66.40;;;;;;10414409;28;20107;-62
2022/05/26 08:09:03;;;;;;;4.65;1.98;;;19.30;66.40;;;;;;10390753;28;20171;-62
2022/05/26 08:14:04;;;;;;;4.97;2.00;;;19.30;66.40;;;;;;10414046;28;20049;-62
2022/05/26 08:19:05;;;;;;;5.65;2.08;;;19.30;66.40;;;;;;10409907;28;20060;-62
2022/05/26 08:24:07;;;;;;;3.35;1.70;;;19.30;66.40;;;;;;10415271;28;20041;-62
2022/05/26 08:29:07;;;;;;;3.03;1.65;;;19.30;67.00;;;;;;10413456;28;20042;-62
2022/05/26 08:34:08;;;;;;;5.47;2.00;;;19.30;66.90;;;;;;10405966;28;20128;-60
2022/05/26 08:39:09;;;;;;;4.80;1.60;;;19.30;67.20;;;;;;10412435;28;20037;-62
2022/05/26 08:44:35;;;;;;;5.53;2.15;;;19.40;66.50;;;;;;10405935;28;20029;-61
2022/05/26 08:49:42;;;;;;;3.58;1.73;;;19.30;66.50;;;;;;10404868;28;20053;-61
2022/05/26 08:54:58;;;;;;;3.13;1.80;;;19.30;66.50;;;;;;10408486;28;20022;-59
2022/05/26 08:59:59;;;;;;;3.67;1.83;;;19.30;66.40;;;;;;10428787;28;20030;-62
2022/05/26 09:05:17;;;;;;;3.28;1.90;;;19.30;66.50;;;;;;10426008;28;20029;-59
2022/05/26 09:15:48;;;;;;;2.92;1.48;;;19.30;66.60;;;;;;10412904;28;20552;-60
2022/05/26 09:20:51;;;;;;;2.83;1.90;;;19.30;67.20;;;;;;10406614;28;20104;-59
2022/05/26 09:26:02;;;;;;;4.32;1.88;;;19.40;67.30;;;;;;10420062;28;20021;-57
2022/05/26 09:31:35;;;;;;;4.32;2.40;;;19.40;66.60;;;;;;10408495;28;20428;-58
2022/05/26 09:36:36;;;;;;;2.90;1.73;;;19.40;66.70;;;;;;10409968;28;20136;-58
2022/05/26 09:41:43;;;;;;;3.33;1.70;;;19.40;66.70;;;;;;10410950;28;20038;-57
2022/05/26 09:46:49;;;;;;;2.67;1.55;;;19.40;67.30;;;;;;10410915;28;20033;-58
2022/05/26 09:52:02;;;;;;;4.22;2.03;;;19.40;66.70;;;;;;10407684;28;20031;-58
2022/05/26 09:57:32;;;;;;;2.25;1.50;;;19.50;66.70;;;;;;10417468;28;20037;-58
2022/05/26 10:02:39;;;;;;;3.47;1.95;;;19.50;66.80;;;;;;10409388;28;20104;-59
2022/05/26 10:08:05;;;;;;;3.95;1.92;;;19.50;66.90;;;;;;10415950;28;20034;-59
2022/05/26 10:13:58;;;;;;;3.92;1.80;;;19.50;66.80;;;;;;10417502;28;20021;-58
2022/05/26 10:19:40;;;;;;;5.90;2.60;;;19.60;66.90;;;;;;10415341;28;20496;-58
2022/05/26 10:24:55;;;;;;;2.97;1.88;;;19.60;66.80;;;;;;10417359;28;20025;-61
2022/05/26 10:30:39;;;;;;;6.82;1.90;;;19.50;66.80;;;;;;10431905;28;20041;-62
2022/05/26 10:36:23;;;;;;;5.55;2.13;;;19.60;66.80;;;;;;10416920;28;20094;-61
2022/05/26 10:41:31;;;;;;;5.18;1.88;;;19.60;66.70;;;;;;10425171;28;20445;-62
2022/05/26 10:46:38;;;;;;;4.80;1.80;;;19.60;66.70;;;;;;10432080;28;20124;-63
2022/05/26 10:51:54;;;;;;;4.53;1.85;;;19.60;66.60;;;;;;10431767;28;20040;-62
2022/05/26 10:57:26;;;;;;;5.18;1.80;;;19.60;66.70;;;;;;10414297;28;20046;-62
2022/05/26 11:02:41;;;;;;;3.00;1.48;;;19.60;66.60;;;;;;10414527;28;20026;-61
2022/05/26 11:07:45;;;;;;;5.47;1.52;;;19.60;66.50;;;;;;10410994;28;20076;-62
2022/05/26 11:13:00;;;;;;;3.45;1.70;;;19.70;66.40;;;;;;10416792;28;20409;-62
2022/05/26 11:18:21;;;;;;;3.55;1.42;;;19.70;66.30;;;;;;10413221;28;20033;-60
2022/05/26 11:23:24;;;;;;;4.85;1.80;;;19.70;66.30;;;;;;10416714;28;20041;-62
2022/05/26 11:28:41;;;;;;;4.75;2.03;;;19.70;66.30;;;;;;10414683;28;20390;-62
2022/05/26 11:39:29;;;;;;;3.88;1.50;;;19.70;66.10;;;;;;10416298;28;20046;-62
2022/05/26 11:44:36;;;;;;;2.40;1.67;;;19.70;66.10;;;;;;10414514;28;20129;-63
2022/05/26 11:49:43;;;;;;;3.70;1.67;;;19.80;66.10;;;;;;10396964;28;20086;-63
2022/05/26 11:54:53;;;;;;;3.63;1.88;;;19.70;66.00;;;;;;10415133;28;20028;-63
2022/05/26 11:59:53;;;;;;;4.07;1.60;;;19.80;66.10;;;;;;10414167;28;20033;-62
2022/05/26 12:04:54;;;;;;;4.65;2.20;;;19.80;66.10;;;;;;10413085;28;20072;-62
2022/05/26 12:09:57;;;;;;;4.47;1.40;;;19.80;66.00;;;;;;10414368;28;20056;-63
2022/05/26 12:15:19;;;;;;;3.28;1.77;;;19.80;65.90;;;;;;10410785;28;20054;-63
2022/05/26 12:20:20;;;;;;;3.42;1.45;;;19.90;65.90;;;;;;10413841;28;20042;-62
2022/05/26 12:25:42;;;;;;;2.42;1.40;;;19.90;65.90;;;;;;10415250;28;20478;-62
2022/05/26 12:30:45;;;;;;;4.65;1.70;;;19.80;65.90;;;;;;10428465;28;20033;-63
2022/05/26 12:36:10;;;;;;;7.03;2.03;;;19.80;65.80;;;;;;10411962;28;20047;-63
2022/05/26 12:41:37;;;;;;;1.52;1.15;;;19.80;65.90;;;;;;10413145;28;20043;-62
2022/05/26 12:46:50;;;;;;;2.80;1.30;;;19.80;66.00;;;;;;10406793;28;20072;-62
2022/05/26 12:52:18;;;;;;;1.92;1.20;;;19.80;65.90;;;;;;10415504;28;20037;-62
2022/05/26 12:57:24;;;;;;;2.65;1.35;;;19.80;65.90;;;;;;10412816;28;20060;-62
2022/05/26 13:02:30;;;;;;;1.83;1.30;;;19.80;65.80;;;;;;10411234;28;20127;-63
2022/05/26 13:07:30;;;;;;;3.75;1.50;;;19.80;65.80;;;;;;10409254;28;20431;-63
2022/05/26 13:12:31;;;;;;;2.50;1.20;;;19.80;65.80;;;;;;10405821;28;20026;-61
2022/05/26 13:17:32;;;;;;;2.28;1.35;;;19.80;65.80;;;;;;10417771;28;20105;-64
2022/05/26 13:22:39;;;;;;;3.15;1.30;;;19.90;66.00;;;;;;10407950;28;20112;-63
2022/05/26 13:28:02;;;;;;;4.25;1.60;;;19.90;66.20;;;;;;10410049;28;20116;-62
2022/05/26 13:33:09;;;;;;;4.60;1.50;;;19.90;67.10;;;;;;10413789;28;20486;-62
2022/05/26 13:38:48;;;;;;;4.13;1.20;;;19.90;66.10;;;;;;10419717;28;20339;-63
2022/05/26 13:43:50;;;;;;;6.45;1.92;;;19.80;66.20;;;;;;10402408;28;20034;-62
2022/05/26 13:48:59;;;;;;;2.50;1.58;;;19.80;66.20;;;;;;10435256;28;20033;-63
2022/05/26 13:54:26;;;;;;;3.72;1.75;;;19.90;66.20;;;;;;10426743;28;20485;-62
2022/05/26 13:59:35;;;;;;;2.65;1.35;;;19.90;66.10;;;;;;10417713;28;20025;-60
2022/05/26 14:04:41;;;;;;;4.67;1.73;;;19.90;66.10;;;;;;10431913;28;20042;-62
2022/05/26 14:09:41;;;;;;;5.28;1.65;;;19.80;66.10;;;;;;10434236;28;20800;-60
2022/05/26 14:14:44;;;;;;;3.05;1.48;;;19.80;66.00;;;;;;10417732;28;20049;-59
2022/05/26 14:19:48;;;;;;;3.40;1.83;;;19.80;65.90;;;;;;10415028;28;20088;-62
2022/05/26 14:24:53;;;;;;;6.55;2.58;;;19.80;65.90;;;;;;10417837;28;20026;-61
2022/05/26 14:30:03;;;;;;;5.28;2.05;;;19.80;65.80;;;;;;10418206;28;20041;-61
2022/05/26 14:35:15;;;;;;;7.45;2.40;;;19.90;65.90;;;;;;10432397;28;20061;-62
2022/05/26 14:40:16;;;;;;;6.90;2.00;;;19.80;65.90;;;;;;10416788;28;20037;-61
2022/05/26 14:45:20;;;;;;;5.90;2.08;;;19.80;65.90;;;;;;10417318;28;20437;-62
2022/05/26 14:50:20;;;;;;;4.45;2.30;;;19.80;66.00;;;;;;10417093;28;20374;-61
2022/05/26 14:55:29;;;;;;;5.28;2.30;;;19.80;66.00;;;;;;10415986;28;20028;-61
2022/05/26 15:00:38;;;;;;;5.70;2.00;;;19.80;65.90;;;;;;10409069;28;20061;-61
2022/05/26 15:05:40;;;;;;;4.53;2.10;;;19.80;65.90;;;;;;10414559;28;20466;-61
2022/05/26 15:10:40;;;;;;;6.15;2.55;;;19.80;65.90;;;;;;10399182;28;20493;-61
2022/05/26 15:15:41;;;;;;;7.30;2.50;;;19.80;65.80;;;;;;10416516;28;20029;-62
2022/05/26 15:20:42;;;;;;;5.40;2.10;;;19.80;65.80;;;;;;10412395;28;20033;-61
2022/05/26 15:31:02;;;;;;;4.20;2.13;;;19.80;65.70;;;;;;10415049;28;20128;-61
2022/05/26 15:36:09;;;;;;;5.57;1.95;;;19.80;65.80;;;;;;10419478;28;20124;-61
2022/05/26 15:41:11;;;;;;;6.95;1.92;;;19.80;65.80;;;;;;10414291;28;20042;-58
2022/05/26 15:46:39;;;;;;;11.63;2.60;;;19.80;66.10;;;;;;10413846;28;20116;-59
2022/05/26 15:51:40;;;;;;;5.50;2.40;;;19.80;65.50;;;;;;10412650;28;20040;-59
2022/05/26 15:56:44;;;;;;;7.65;2.33;;;19.90;64.70;;;;;;10412727;28;20037;-59
2022/05/26 16:01:45;;;;;;;7.28;2.20;;;19.90;64.40;;;;;;10414758;28;20021;-57
2022/05/26 16:06:46;;;;;;;7.30;2.88;;;19.90;64.40;;;;;;10414275;28;20058;-61
2022/05/26 16:11:50;;;;;;;4.90;2.10;;;19.90;64.20;;;;;;10412053;28;20093;-61
2022/05/26 16:16:51;;;;;;;10.15;2.40;;;19.90;63.90;;;;;;10412579;28;20033;-61
2022/05/26 16:21:53;;;;;;;6.25;2.55;;;19.90;65.90;;;;;;10414259;28;20113;-61
2022/05/26 16:26:54;;;;;;;4.93;2.63;;;20.00;67.80;;;;;;10413664;28;20033;-62
2022/05/26 16:31:54;;;;;;;3.50;2.20;;;20.10;67.80;;;;;;10413805;28;20127;-61
2022/05/26 16:36:55;;;;;;;10.00;2.47;;;20.10;68.10;;;;;;10411494;28;20095;-60
2022/05/26 16:41:57;;;;;;;6.70;2.55;;;20.10;67.90;;;;;;10412167;28;20044;-62
2022/05/26 16:46:58;;;;;;;3.25;1.98;;;20.10;67.90;;;;;;10412115;28;20025;-62
2022/05/26 16:51:59;;;;;;;4.63;2.47;;;20.20;68.00;;;;;;10413178;28;20525;-61
2022/05/26 16:57:00;;;;;;;5.93;1.90;;;20.10;67.70;;;;;;10412713;28;20030;-62
2022/05/26 17:02:01;;;;;;;9.20;2.53;;;20.10;67.60;;;;;;10412881;28;20108;-63
2022/05/26 17:07:03;;;;;;;9.38;2.88;;;20.10;67.80;;;;;;10412332;28;20042;-61
2022/05/26 17:12:04;;;;;;;5.93;2.28;;;20.10;67.90;;;;;;10412729;28;20108;-59
2022/05/26 17:22:25;;;;;;;5.10;2.15;;;20.00;67.60;;;;;;10410180;28;20112;-61
2022/05/26 17:27:43;;;;;;;5.22;2.25;;;19.90;67.30;;;;;;10411613;28;20060;-60
2022/05/26 17:32:44;;;;;;;4.72;2.22;;;19.90;67.60;;;;;;10411238;28;20042;-60
2022/05/26 17:37:47;;;;;;;9.10;2.65;;;19.90;68.00;;;;;;10412200;28;20037;-61
2022/05/26 17:42:48;;;;;;;10.35;2.50;;;20.00;68.20;;;;;;10411272;28;20116;-65
2022/05/26 17:47:49;;;;;;;10.55;2.75;;;20.00;68.10;;;;;;10411496;28;20025;-64
2022/05/26 17:52:49;;;;;;;7.28;1.95;;;20.00;69.10;;;;;;10411869;28;20060;-65
2022/05/26 17:57:51;;;;;;;5.28;1.95;;;20.00;68.80;;;;;;10395133;28;20117;-64
2022/05/26 18:03:03;;;;;;;6.50;2.25;;;20.10;68.80;;;;;;10411742;28;20035;-63
2022/05/26 18:08:06;;;;;;;5.13;2.08;;;20.10;68.30;;;;;;10394725;28;20033;-61
2022/05/26 18:13:07;;;;;;;7.90;2.25;;;20.10;68.20;;;;;;10411796;28;20092;-62
2022/05/26 18:18:14;;;;;;;4.57;1.90;;;20.10;68.80;;;;;;10416561;28;20092;-63
2022/05/26 18:23:24;;;;;;;5.85;2.60;;;20.10;68.40;;;;;;10415069;28;20044;-64
2022/05/26 18:28:25;;;;;;;7.07;2.78;;;20.10;68.40;;;;;;10416375;28;20029;-60
2022/05/26 18:33:29;;;;;;;7.93;6.88;;;20.10;68.40;;;;;;10417907;28;20848;-60
2022/05/26 18:38:31;;;;;;;33.55;31.63;;;20.20;68.30;;;;;;10418143;28;20039;-60
2022/05/26 18:43:31;;;;;;;25.38;23.83;;;20.30;68.50;;;;;;10418052;28;20029;-60
2022/05/26 18:48:36;;;;;;;14.40;13.10;;;20.30;68.50;;;;;;10416534;28;20117;-60
2022/05/26 18:53:37;;;;;;;14.88;13.68;;;20.30;68.50;;;;;;10416552;28;20037;-62
2022/05/26 18:58:38;;;;;;;13.43;12.18;;;20.30;68.60;;;;;;10403479;28;20425;-60
2022/05/26 19:03:44;;;;;;;14.18;12.88;;;20.20;68.60;;;;;;10417616;28;20026;-61
2022/05/26 19:08:47;;;;;;;16.35;14.00;;;20.30;68.70;;;;;;10404089;28;20042;-59
2022/05/26 19:13:47;;;;;;;11.95;11.05;;;20.20;68.70;;;;;;10415704;28;20022;-59
2022/05/26 19:18:48;;;;;;;12.43;11.32;;;20.10;68.80;;;;;;10412905;28;20025;-60
2022/05/26 19:23:49;;;;;;;12.25;11.13;;;20.00;68.50;;;;;;10417843;28;20087;-60
2022/05/26 19:28:56;;;;;;;10.77;10.02;;;20.10;68.40;;;;;;10415244;28;20135;-60
2022/05/26 19:34:00;;;;;;;12.25;11.27;;;20.00;68.20;;;;;;10414637;28;20184;-60
2022/05/26 19:39:01;;;;;;;10.85;10.00;;;20.00;68.30;;;;;;10415820;28;20506;-60
2022/05/26 19:44:03;;;;;;;11.82;10.80;;;20.00;68.30;;;;;;10415597;28;20392;-59
2022/05/26 19:49:05;;;;;;;9.85;9.15;;;20.00;68.20;;;;;;10413985;28;20116;-62
2022/05/26 19:54:06;;;;;;;10.30;8.98;;;20.00;68.00;;;;;;10415175;28;20025;-61
2022/05/26 19:59:11;;;;;;;11.00;10.00;;;19.90;67.90;;;;;;10413718;28;20536;-62
2022/05/26 20:04:13;;;;;;;10.10;9.18;;;20.00;67.60;;;;;;10413820;28;20120;-59
2022/05/26 20:09:14;;;;;;;9.25;8.55;;;19.90;67.70;;;;;;10414648;28;20036;-62
2022/05/26 20:14:17;;;;;;;9.02;8.35;;;19.90;67.60;;;;;;10429579;28;20112;-61
2022/05/26 20:19:18;;;;;;;9.07;8.38;;;19.90;67.50;;;;;;10410175;28;20033;-62
2022/05/26 20:24:19;;;;;;;8.63;7.93;;;19.90;67.20;;;;;;10415531;28;20029;-60
2022/05/26 20:29:34;;;;;;;8.05;7.35;;;19.90;67.00;;;;;;10412493;28;20121;-60
2022/05/26 20:34:36;;;;;;;7.88;7.28;;;19.90;67.00;;;;;;10413947;28;20159;-60
2022/05/26 20:39:41;;;;;;;8.10;7.30;;;19.90;66.80;;;;;;10412743;28;20057;-60
2022/05/26 20:44:42;;;;;;;8.13;7.40;;;19.90;66.70;;;;;;10412277;28;20037;-60
2022/05/26 20:49:49;;;;;;;7.70;7.20;;;19.90;66.70;;;;;;10411070;28;20040;-59
2022/05/26 20:54:49;;;;;;;7.75;7.15;;;19.90;66.70;;;;;;10413446;28;20477;-59
2022/05/26 20:59:50;;;;;;;7.38;6.72;;;19.90;66.70;;;;;;10413115;28;20033;-60
2022/05/26 21:04:55;;;;;;;7.03;6.40;;;19.80;66.50;;;;;;10412957;28;20033;-60
2022/05/26 21:09:57;;;;;;;7.03;6.43;;;19.90;66.50;;;;;;10412978;28;20037;-59
2022/05/26 21:14:57;;;;;;;6.53;6.03;;;19.90;66.60;;;;;;10412873;28;20112;-60
2022/05/26 21:19:58;;;;;;;6.03;5.63;;;19.90;66.40;;;;;;10428396;28;20031;-59
2022/05/26 21:24:59;;;;;;;6.35;5.85;;;19.90;66.40;;;;;;10399619;28;20029;-60
2022/05/26 21:30:01;;;;;;;7.00;6.30;;;19.90;66.50;;;;;;10412325;28;20029;-60
2022/05/26 21:35:08;;;;;;;6.80;6.30;;;19.90;66.40;;;;;;10411356;28;20124;-60
2022/05/26 21:40:09;;;;;;;5.55;5.15;;;19.90;66.40;;;;;;10411397;28;20470;-59
2022/05/26 21:45:20;;;;;;;7.05;6.45;;;19.90;66.40;;;;;;10412216;28;20029;-60
2022/05/26 21:50:21;;;;;;;5.70;5.20;;;19.90;66.30;;;;;;10429957;28;20029;-60
2022/05/26 21:55:25;;;;;;;6.35;5.18;;;19.90;66.40;;;;;;10418541;28;20057;-60
2022/05/26 22:01:10;;;;;;;5.50;5.10;;;19.80;66.30;;;;;;10418550;28;20061;-59
2022/05/26 22:11:32;;;;;;;;;;;19.90;66.40;;;;;;10420299;28;20079;-60
2022/05/26 22:16:33;;;;;;;5.90;5.40;;;19.90;66.40;;;;;;10401488;28;19909;-60
2022/05/26 22:21:46;;;;;;;5.70;5.30;;;19.80;66.30;;;;;;10415233;28;20033;-60
2022/05/26 22:26:49;;;;;;;6.15;5.70;;;19.80;66.30;;;;;;10418782;28;20037;-60
2022/05/26 22:31:50;;;;;;;6.07;5.57;;;19.80;66.30;;;;;;10433287;28;20569;-60
2022/05/26 22:36:52;;;;;;;4.95;4.55;;;19.80;66.30;;;;;;10418282;28;20053;-60
2022/05/26 22:41:52;;;;;;;5.70;5.10;;;19.80;66.20;;;;;;10418116;28;20026;-60
2022/05/26 22:46:53;;;;;;;5.85;5.35;;;19.80;66.20;;;;;;10417949;28;20502;-60
2022/05/26 22:51:54;;;;;;;4.45;4.03;;;19.80;66.20;;;;;;10415509;28;20339;-60
2022/05/26 22:56:54;;;;;;;5.07;4.68;;;19.80;66.70;;;;;;10417401;28;20454;-61
2022/05/26 23:01:55;;;;;;;5.38;4.95;;;19.80;66.20;;;;;;10416296;28;20033;-60
2022/05/26 23:06:56;;;;;;;4.88;4.43;;;19.80;66.30;;;;;;10416837;28;20465;-60
2022/05/26 23:11:56;;;;;;;4.55;4.25;;;19.80;66.20;;;;;;10416697;28;20127;-60
2022/05/26 23:16:57;;;;;;;5.03;4.63;;;19.80;66.20;;;;;;10416724;28;20518;-60
2022/05/26 23:21:58;;;;;;;5.85;5.30;;;19.80;66.20;;;;;;10415914;28;20040;-59
2022/05/26 23:26:58;;;;;;;5.18;4.68;;;19.80;66.20;;;;;;10415965;28;20108;-60
2022/05/26 23:31:59;;;;;;;3.95;3.55;;;19.80;66.20;;;;;;10416222;28;20056;-60
2022/05/26 23:37:00;;;;;;;4.47;4.07;;;19.80;66.20;;;;;;10414550;28;20528;-60
2022/05/26 23:47:19;;;;;;;4.33;3.93;;;19.80;66.10;;;;;;10415540;28;20124;-59
2022/05/26 23:52:20;;;;;;;4.85;4.45;;;19.80;66.10;;;;;;10414940;28;20029;-60
